createdAt,value
2023-05-02T00:01:15.220Z,5.20
2023-05-02T00:03:43.683Z,4.85
2023-05-02T00:06:11.365Z,4.63
2023-05-02T00:08:38.157Z,5.15
2023-05-02T00:11:05.459Z,5.05
2023-05-02T00:13:33.508Z,5.07
2023-05-02T00:16:00.168Z,5.60
2023-05-02T00:18:26.966Z,5.63
2023-05-02T00:20:53.710Z,5.78
2023-05-02T00:23:20.439Z,5.70
2023-05-02T00:25:47.372Z,5.70
2023-05-02T00:28:14.034Z,5.30
2023-05-02T00:30:47.371Z,5.60
2023-05-02T00:33:15.779Z,6.20
2023-05-02T00:35:42.516Z,5.93
2023-05-02T00:38:09.307Z,5.50
2023-05-02T00:40:52.081Z,5.60
2023-05-02T00:43:18.916Z,6.20
2023-05-02T00:45:46.402Z,5.88
2023-05-02T00:48:13.637Z,6.35
2023-05-02T00:50:42.388Z,6.57
2023-05-02T00:53:12.174Z,6.45
2023-05-02T00:55:39.106Z,6.00
2023-05-02T00:58:10.068Z,6.40
2023-05-02T01:00:48.692Z,6.28
2023-05-02T01:03:41.309Z,5.95
2023-05-02T01:06:20.068Z,5.75
2023-05-02T01:08:56.216Z,4.80
2023-05-02T01:11:46.354Z,5.88
2023-05-02T01:14:15.010Z,5.65
2023-05-02T01:16:45.770Z,5.82
2023-05-02T01:19:51.133Z,5.68
2023-05-02T01:22:20.080Z,5.68
2023-05-02T01:25:06.040Z,5.53
2023-05-02T01:28:09.512Z,5.80
2023-05-02T01:30:38.666Z,6.25
2023-05-02T01:33:06.214Z,6.07
2023-05-02T01:35:35.157Z,6.47
2023-05-02T01:38:03.320Z,5.90
2023-05-02T01:40:30.721Z,5.47
2023-05-02T01:42:58.708Z,6.32
2023-05-02T01:45:28.033Z,6.40
2023-05-02T01:47:55.130Z,6.50
2023-05-02T01:50:24.612Z,5.85
2023-05-02T01:52:53.444Z,6.85
2023-05-02T01:55:20.575Z,6.72
2023-05-02T01:57:50.420Z,6.90
2023-05-02T02:00:18.532Z,7.63
2023-05-02T02:02:47.658Z,6.68
2023-05-02T02:05:16.059Z,6.47
2023-05-02T02:07:43.833Z,6.75
2023-05-02T02:10:11.143Z,7.05
2023-05-02T02:12:43.734Z,6.47
2023-05-02T02:15:18.491Z,7.53
2023-05-02T02:18:01.662Z,7.22
2023-05-02T02:20:29.853Z,6.90
2023-05-02T02:22:57.741Z,6.60
2023-05-02T02:25:26.965Z,6.57
2023-05-02T02:27:54.113Z,7.43
2023-05-02T02:30:20.925Z,7.78
2023-05-02T02:32:47.597Z,7.47
2023-05-02T02:35:14.432Z,7.88
2023-05-02T02:37:58.252Z,7.22
2023-05-02T02:40:29.843Z,7.80
2023-05-02T02:43:27.347Z,7.28
2023-05-02T02:46:12.352Z,7.68
2023-05-02T02:48:56.916Z,7.28
2023-05-02T02:51:32.025Z,7.20
2023-05-02T02:54:26.600Z,7.13
2023-05-02T02:57:07.656Z,7.13
2023-05-02T02:59:41.315Z,6.95
2023-05-02T03:02:09.952Z,7.07
2023-05-02T03:04:40.927Z,8.07
2023-05-02T03:07:08.091Z,8.07
2023-05-02T03:09:45.050Z,8.13
2023-05-02T03:12:12.171Z,7.72
2023-05-02T03:14:39.941Z,7.40
2023-05-02T03:17:08.413Z,7.20
2023-05-02T03:19:35.423Z,7.70
2023-05-02T03:22:02.069Z,7.80
2023-05-02T03:24:28.697Z,8.48
2023-05-02T03:26:56.626Z,7.72
2023-05-02T03:29:23.367Z,8.38
2023-05-02T03:31:50.839Z,8.25
2023-05-02T03:34:17.781Z,7.90
2023-05-02T03:36:44.444Z,7.85
2023-05-02T03:39:11.251Z,8.32
2023-05-02T03:41:38.069Z,7.55
2023-05-02T03:44:04.947Z,8.68
2023-05-02T03:46:31.663Z,8.55
2023-05-02T03:48:58.806Z,7.75
2023-05-02T03:51:25.705Z,7.95
2023-05-02T03:53:52.327Z,7.82
2023-05-02T03:56:23.157Z,7.50
2023-05-02T03:58:49.838Z,7.15
2023-05-02T04:01:17.121Z,7.80
2023-05-02T04:03:44.053Z,7.93
2023-05-02T04:06:11.101Z,7.60
2023-05-02T04:08:37.745Z,7.13
2023-05-02T04:11:04.490Z,8.57
2023-05-02T04:13:31.348Z,7.07
2023-05-02T04:15:57.986Z,7.32
2023-05-02T04:18:24.692Z,7.57
2023-05-02T04:20:51.510Z,8.55
2023-05-02T04:23:18.543Z,8.68
2023-05-02T04:25:57.371Z,8.50
2023-05-02T04:28:24.149Z,7.95
2023-05-02T04:30:51.543Z,8.77
2023-05-02T04:33:18.620Z,8.40
2023-05-02T04:35:45.431Z,8.90
2023-05-02T04:38:12.209Z,9.38
2023-05-02T04:40:39.112Z,8.88
2023-05-02T04:43:05.862Z,8.65
2023-05-02T04:45:32.614Z,7.95
2023-05-02T04:47:59.396Z,9.18
2023-05-02T04:50:28.105Z,8.73
2023-05-02T04:52:54.926Z,7.68
2023-05-02T04:55:21.699Z,7.35
2023-05-02T04:57:48.483Z,7.35
2023-05-02T05:00:15.833Z,8.07
2023-05-02T05:02:43.248Z,7.85
2023-05-02T05:05:10.194Z,8.32
2023-05-02T05:07:37.278Z,9.02
2023-05-02T05:10:04.099Z,8.60
2023-05-02T05:12:30.833Z,9.35
2023-05-02T05:14:57.664Z,8.70
2023-05-02T05:17:24.341Z,9.18
2023-05-02T05:19:51.048Z,9.65
2023-05-02T05:22:17.791Z,9.48
2023-05-02T05:24:54.100Z,10.52
2023-05-02T05:27:21.414Z,9.93
2023-05-02T05:29:48.362Z,11.45
2023-05-02T05:32:15.066Z,10.70
2023-05-02T05:34:41.952Z,10.35
2023-05-02T05:37:08.737Z,10.40
2023-05-02T05:39:35.426Z,10.00
2023-05-02T05:42:02.596Z,10.75
2023-05-02T05:44:29.411Z,11.73
2023-05-02T05:46:56.408Z,11.13
2023-05-02T05:49:24.248Z,11.57
2023-05-02T05:51:51.023Z,13.05
2023-05-02T05:54:18.561Z,11.57
2023-05-02T05:56:45.950Z,11.43
2023-05-02T05:59:12.756Z,11.68
2023-05-02T06:01:39.902Z,11.20
2023-05-02T06:04:07.659Z,11.73
2023-05-02T06:06:34.715Z,12.35
2023-05-02T06:09:01.920Z,11.55
2023-05-02T06:11:28.701Z,12.48
2023-05-02T06:13:55.702Z,12.65
2023-05-02T06:16:22.506Z,12.98
2023-05-02T06:18:50.899Z,12.32
2023-05-02T06:21:17.593Z,11.10
2023-05-02T06:23:44.331Z,11.10
2023-05-02T06:26:11.191Z,12.50
2023-05-02T06:28:37.980Z,11.57
2023-05-02T06:31:06.005Z,11.80
2023-05-02T06:33:33.944Z,12.80
2023-05-02T06:36:01.848Z,12.93
2023-05-02T06:38:29.793Z,12.23
2023-05-02T06:40:56.529Z,12.70
2023-05-02T06:43:23.196Z,12.20
2023-05-02T06:45:54.465Z,13.68
2023-05-02T06:48:21.632Z,13.60
2023-05-02T06:50:49.392Z,13.18
2023-05-02T06:53:16.297Z,15.02
2023-05-02T06:55:44.576Z,13.98
2023-05-02T06:58:11.360Z,15.25
2023-05-02T07:00:38.210Z,15.98
2023-05-02T07:03:04.986Z,15.93
2023-05-02T07:05:31.744Z,14.85
2023-05-02T07:07:58.653Z,17.38
2023-05-02T07:10:25.470Z,18.73
2023-05-02T07:12:52.192Z,18.33
2023-05-02T07:15:18.982Z,17.95
2023-05-02T07:17:47.753Z,19.88
2023-05-02T07:20:15.632Z,19.40
2023-05-02T07:22:43.167Z,24.77
2023-05-02T07:25:10.333Z,22.80
2023-05-02T07:27:37.066Z,24.25
2023-05-02T07:30:04.413Z,24.85
2023-05-02T07:32:31.708Z,24.38
2023-05-02T07:34:58.647Z,26.77
2023-05-02T07:37:25.364Z,26.38
2023-05-02T07:39:52.176Z,26.80
2023-05-02T07:42:18.815Z,26.70
2023-05-02T07:44:45.504Z,26.52
2023-05-02T07:47:12.142Z,28.30
2023-05-02T07:49:38.773Z,28.33
2023-05-02T07:52:05.753Z,28.75
2023-05-02T07:54:32.424Z,26.60
2023-05-02T07:57:02.327Z,26.17
2023-05-02T07:59:30.618Z,30.20
2023-05-02T08:01:57.432Z,28.45
2023-05-02T08:04:24.374Z,28.90
2023-05-02T08:06:51.645Z,27.27
2023-05-02T08:09:18.455Z,29.13
2023-05-02T08:11:45.198Z,29.17
2023-05-02T08:14:11.891Z,29.02
2023-05-02T08:16:38.812Z,29.55
2023-05-02T08:19:05.747Z,33.55
2023-05-02T08:21:32.632Z,31.20
2023-05-02T08:23:59.773Z,30.02
2023-05-02T08:26:27.225Z,27.83
2023-05-02T08:28:55.537Z,26.65
2023-05-02T08:31:22.441Z,28.50
2023-05-02T08:33:49.334Z,28.38
2023-05-02T08:36:17.866Z,27.92
2023-05-02T08:38:46.068Z,27.83
2023-05-02T08:41:17.753Z,27.00
2023-05-02T08:43:47.843Z,25.77
2023-05-02T08:46:17.287Z,24.90
2023-05-02T08:48:48.039Z,26.30
2023-05-02T08:51:16.929Z,25.95
2023-05-02T08:53:44.441Z,27.60
2023-05-02T08:56:12.522Z,25.55
2023-05-02T08:58:40.895Z,25.05
2023-05-02T09:01:16.391Z,26.63
2023-05-02T09:03:47.747Z,24.88
2023-05-02T09:06:20.651Z,25.25
2023-05-02T09:08:49.616Z,26.00
2023-05-02T09:11:17.149Z,23.77
2023-05-02T09:13:44.657Z,26.88
2023-05-02T09:16:25.702Z,25.52
2023-05-02T09:18:57.521Z,24.10
2023-05-02T09:21:26.656Z,24.15
2023-05-02T09:23:55.946Z,23.80
2023-05-02T09:26:33.617Z,25.45
2023-05-02T09:29:02.361Z,22.65
2023-05-02T09:34:13.772Z,23.45
2023-05-02T09:36:45.314Z,23.75
2023-05-02T09:39:14.078Z,24.77
2023-05-02T09:41:45.568Z,23.33
2023-05-02T09:44:14.212Z,24.05
2023-05-02T09:46:48.776Z,22.58
2023-05-02T09:49:18.864Z,23.08
2023-05-02T09:51:49.673Z,23.60
2023-05-02T09:54:38.938Z,22.95
2023-05-02T09:57:07.125Z,21.38
2023-05-02T09:59:34.007Z,19.83
2023-05-02T10:02:02.483Z,20.58
2023-05-02T10:04:31.617Z,21.20
2023-05-02T10:06:59.361Z,20.48
2023-05-02T10:09:27.933Z,20.35
2023-05-02T10:11:56.526Z,21.70
2023-05-02T10:14:27.790Z,20.33
2023-05-02T10:17:12.495Z,19.95
2023-05-02T10:19:48.937Z,20.02
2023-05-02T10:22:22.155Z,20.23
2023-05-02T10:24:53.367Z,19.88
2023-05-02T10:27:20.157Z,18.87
2023-05-02T10:29:47.504Z,20.85
2023-05-02T10:32:17.151Z,21.02
2023-05-02T10:34:44.414Z,20.05
2023-05-02T10:37:12.438Z,20.88
2023-05-02T10:39:39.202Z,20.67
2023-05-02T10:42:06.442Z,21.63
2023-05-02T10:44:37.583Z,19.83
2023-05-02T10:47:24.375Z,21.67
2023-05-02T10:50:02.253Z,20.50
2023-05-02T10:52:41.045Z,21.38
2023-05-02T10:55:20.221Z,22.08
2023-05-02T10:57:59.254Z,20.75
2023-05-02T11:00:30.884Z,22.58
2023-05-02T11:02:57.987Z,19.90
2023-05-02T11:05:25.965Z,20.45
2023-05-02T11:08:23.166Z,19.17
2023-05-02T11:10:50.095Z,18.52
2023-05-02T11:13:16.743Z,18.95
2023-05-02T11:15:43.390Z,21.90
2023-05-02T11:18:14.282Z,19.15
2023-05-02T11:20:42.951Z,22.10
2023-05-02T11:23:15.783Z,23.05
2023-05-02T11:25:44.719Z,23.10
2023-05-02T11:28:36.464Z,21.02
2023-05-02T11:31:04.815Z,23.30
2023-05-02T11:33:31.644Z,22.55
2023-05-02T11:35:58.805Z,25.27
2023-05-02T11:38:27.068Z,23.27
2023-05-02T11:40:59.232Z,21.92
2023-05-02T11:43:30.113Z,22.88
2023-05-02T11:45:59.855Z,23.25
2023-05-02T11:48:27.634Z,24.67
2023-05-02T11:51:05.790Z,24.13
2023-05-02T11:53:33.294Z,25.90
2023-05-02T11:56:04.630Z,27.25
2023-05-02T11:58:33.471Z,28.80
2023-05-02T12:01:15.197Z,29.50
2023-05-02T12:03:42.450Z,29.08
2023-05-02T12:06:12.675Z,28.83
2023-05-02T12:08:40.956Z,27.02
2023-05-02T12:11:07.744Z,28.60
2023-05-02T12:13:35.148Z,26.67
2023-05-02T12:16:02.454Z,26.55
2023-05-02T12:18:29.327Z,27.50
2023-05-02T12:20:56.916Z,26.10
2023-05-02T12:23:26.883Z,25.35
2023-05-02T12:25:53.632Z,26.80
2023-05-02T12:28:20.959Z,25.80
2023-05-02T12:30:49.665Z,24.52
2023-05-02T12:33:17.324Z,24.30
2023-05-02T12:35:46.709Z,22.75
2023-05-02T12:38:14.738Z,24.17
2023-05-02T12:40:57.574Z,23.50
2023-05-02T12:43:24.381Z,23.05
2023-05-02T12:45:53.774Z,24.02
2023-05-02T12:48:28.002Z,22.73
2023-05-02T12:50:55.559Z,22.40
2023-05-02T12:53:45.769Z,20.77
2023-05-02T12:56:13.448Z,19.58
2023-05-02T12:58:45.735Z,20.45
2023-05-02T13:01:13.632Z,19.52
2023-05-02T13:03:43.103Z,18.27
2023-05-02T13:06:10.115Z,17.95
2023-05-02T13:08:37.057Z,16.10
2023-05-02T13:11:04.552Z,16.85
2023-05-02T13:13:32.543Z,17.63
2023-05-02T13:15:59.294Z,17.23
2023-05-02T13:18:27.932Z,17.00
2023-05-02T13:20:54.721Z,16.10
2023-05-02T13:23:21.470Z,15.82
2023-05-02T13:25:48.187Z,16.52
2023-05-02T13:28:15.146Z,16.33
2023-05-02T13:30:42.026Z,15.55
2023-05-02T13:33:08.760Z,13.88
2023-05-02T13:35:35.696Z,11.93
2023-05-02T13:38:03.140Z,11.38
2023-05-02T13:40:29.788Z,10.55
2023-05-02T13:42:56.520Z,11.85
2023-05-02T13:45:23.254Z,13.45
2023-05-02T13:47:50.004Z,13.48
2023-05-02T13:50:16.910Z,12.27
2023-05-02T13:52:43.938Z,12.13
2023-05-02T13:55:10.684Z,12.52
2023-05-02T13:57:37.318Z,13.18
2023-05-02T14:00:04.899Z,10.80
2023-05-02T14:02:32.016Z,10.48
2023-05-02T14:04:58.863Z,10.07
2023-05-02T14:07:25.660Z,9.80
2023-05-02T14:09:52.369Z,9.63
2023-05-02T14:12:19.073Z,9.88
2023-05-02T14:14:45.960Z,10.20
2023-05-02T14:17:12.936Z,9.05
2023-05-02T14:19:39.634Z,9.50
2023-05-02T14:22:07.373Z,9.82
2023-05-02T14:24:34.065Z,9.18
2023-05-02T14:27:01.397Z,8.50
2023-05-02T14:29:28.075Z,7.00
2023-05-02T14:31:54.968Z,6.35
2023-05-02T14:34:22.132Z,8.15
2023-05-02T14:36:48.826Z,9.35
2023-05-02T14:39:15.605Z,9.20
2023-05-02T14:41:42.282Z,8.40
2023-05-02T14:44:08.980Z,7.55
2023-05-02T14:46:35.984Z,6.70
2023-05-02T14:49:02.938Z,6.80
2023-05-02T14:51:29.587Z,6.10
2023-05-02T14:53:56.583Z,6.97
2023-05-02T14:56:24.222Z,6.28
2023-05-02T14:58:51.411Z,7.10
2023-05-02T15:01:19.752Z,6.43
2023-05-02T15:04:03.349Z,5.22
2023-05-02T15:06:35.028Z,6.10
2023-05-02T15:09:02.366Z,4.73
2023-05-02T15:11:29.030Z,3.95
2023-05-02T15:13:58.485Z,3.55
2023-05-02T15:16:27.110Z,4.20
2023-05-02T15:18:54.342Z,4.78
2023-05-02T15:21:21.309Z,4.90
2023-05-02T15:23:48.039Z,3.58
2023-05-02T15:26:14.852Z,4.45
2023-05-02T15:28:42.586Z,3.92
2023-05-02T15:31:09.238Z,4.03
2023-05-02T15:33:37.374Z,4.18
2023-05-02T15:36:04.296Z,5.30
2023-05-02T15:38:31.031Z,5.00
2023-05-02T15:40:59.400Z,4.43
2023-05-02T15:43:26.850Z,4.65
2023-05-02T15:45:58.133Z,4.68
2023-05-02T15:48:28.737Z,4.65
2023-05-02T15:50:55.569Z,4.75
2023-05-02T15:53:22.997Z,4.30
2023-05-02T15:55:53.298Z,4.55
2023-05-02T15:58:20.620Z,3.97
2023-05-02T16:00:51.838Z,4.72
2023-05-02T16:03:18.630Z,4.30
2023-05-02T16:05:46.326Z,3.55
2023-05-02T16:08:13.193Z,3.33
2023-05-02T16:10:40.341Z,3.10
2023-05-02T16:13:07.032Z,3.22
2023-05-02T16:15:33.736Z,3.17
2023-05-02T16:18:00.430Z,2.72
2023-05-02T16:20:28.432Z,2.60
2023-05-02T16:22:55.585Z,2.20
2023-05-02T16:25:22.228Z,2.33
2023-05-02T16:27:49.024Z,2.47
2023-05-02T16:30:16.123Z,2.05
2023-05-02T16:32:43.092Z,2.05
2023-05-02T16:35:12.729Z,2.90
2023-05-02T16:37:41.126Z,2.60
2023-05-02T16:40:09.019Z,2.35
2023-05-02T16:42:36.358Z,2.35
2023-05-02T16:45:03.444Z,2.40
2023-05-02T16:47:30.144Z,2.47
2023-05-02T16:49:58.345Z,2.45
2023-05-02T16:52:26.457Z,2.40
2023-05-02T16:54:53.541Z,2.60
2023-05-02T16:57:21.543Z,1.92
2023-05-02T16:59:50.705Z,2.17
2023-05-02T17:02:19.978Z,1.90
2023-05-02T17:04:46.694Z,2.80
2023-05-02T17:07:13.368Z,2.25
2023-05-02T17:09:41.700Z,2.53
2023-05-02T17:12:10.621Z,2.03
2023-05-02T17:14:39.444Z,2.50
2023-05-02T17:17:06.254Z,2.13
2023-05-02T17:19:32.944Z,2.55
2023-05-02T17:22:00.610Z,3.08
2023-05-02T17:24:29.993Z,2.90
2023-05-02T17:26:57.150Z,3.38
2023-05-02T17:29:23.901Z,3.38
2023-05-02T17:31:51.097Z,3.15
2023-05-02T17:34:17.760Z,3.65
2023-05-02T17:36:45.100Z,3.78
2023-05-02T17:39:13.401Z,4.28
2023-05-02T17:41:40.171Z,4.00
2023-05-02T17:44:06.941Z,3.80
2023-05-02T17:46:33.761Z,3.70
2023-05-02T17:49:00.979Z,3.78
2023-05-02T17:51:28.217Z,4.18
2023-05-02T17:53:54.994Z,4.20
2023-05-02T17:56:21.988Z,3.65
2023-05-02T17:58:48.786Z,3.95
2023-05-02T18:01:17.552Z,3.80
2023-05-02T18:03:44.877Z,3.90
2023-05-02T18:06:16.723Z,2.80
2023-05-02T18:08:44.468Z,3.30
2023-05-02T18:11:18.707Z,2.88
2023-05-02T18:13:46.022Z,3.40
2023-05-02T18:16:13.884Z,3.25
2023-05-02T18:18:41.205Z,2.90
2023-05-02T18:21:09.298Z,3.25
2023-05-02T18:23:35.984Z,2.45
2023-05-02T18:26:03.206Z,2.90
2023-05-02T18:28:30.021Z,3.05
2023-05-02T18:30:56.796Z,2.50
2023-05-02T18:33:23.495Z,2.83
2023-05-02T18:35:50.308Z,3.00
2023-05-02T18:38:17.468Z,2.40
2023-05-02T18:40:44.263Z,2.67
2023-05-02T18:43:11.141Z,3.00
2023-05-02T18:45:37.905Z,2.92
2023-05-02T18:48:04.856Z,7.80
2023-05-02T18:50:31.675Z,5.82
2023-05-02T18:52:58.397Z,8.82
2023-05-02T18:55:25.440Z,5.55
2023-05-02T18:57:52.252Z,4.00
2023-05-02T19:00:20.388Z,3.10
2023-05-02T19:02:47.815Z,2.55
2023-05-02T19:05:15.098Z,2.60
2023-05-02T19:07:42.388Z,2.95
2023-05-02T19:10:10.990Z,2.42
2023-05-02T19:12:38.053Z,3.05
2023-05-02T19:15:06.560Z,2.67
2023-05-02T19:17:33.606Z,2.67
2023-05-02T19:20:00.464Z,2.97
2023-05-02T19:22:27.857Z,2.95
2023-05-02T19:24:55.183Z,2.92
2023-05-02T19:27:21.828Z,3.30
2023-05-02T19:29:48.565Z,3.45
2023-05-02T19:32:15.765Z,3.70
2023-05-02T19:34:42.535Z,3.97
2023-05-02T19:37:09.249Z,3.97
2023-05-02T19:39:36.133Z,3.33
2023-05-02T19:42:03.290Z,3.90
2023-05-02T19:44:30.724Z,3.97
2023-05-02T19:46:57.503Z,4.05
2023-05-02T19:49:24.200Z,4.63
2023-05-02T19:51:50.938Z,4.45
2023-05-02T19:54:17.591Z,4.80
2023-05-02T19:56:44.284Z,4.18
2023-05-02T19:59:11.084Z,3.70
2023-05-02T20:01:37.853Z,3.67
2023-05-02T20:04:04.752Z,3.97
2023-05-02T20:06:32.300Z,4.90
2023-05-02T20:08:59.189Z,4.18
2023-05-02T20:11:26.333Z,5.50
2023-05-02T20:13:54.242Z,4.30
2023-05-02T20:16:21.097Z,4.85
2023-05-02T20:18:47.964Z,4.75
2023-05-02T20:21:14.662Z,4.30
2023-05-02T20:23:43.329Z,5.38
2023-05-02T20:26:10.197Z,4.43
2023-05-02T20:28:37.812Z,4.53
2023-05-02T20:31:04.789Z,4.32
2023-05-02T20:33:43.947Z,4.85
2023-05-02T20:36:13.245Z,5.15
2023-05-02T20:38:42.329Z,4.97
2023-05-02T20:41:12.325Z,5.57
2023-05-02T20:43:39.725Z,5.32
2023-05-02T20:46:16.215Z,5.50
2023-05-02T20:48:43.259Z,4.97
2023-05-02T20:51:10.008Z,5.50
2023-05-02T20:53:37.979Z,5.53
2023-05-02T20:56:05.146Z,5.50
2023-05-02T20:58:32.165Z,5.15
2023-05-02T21:00:59.189Z,4.82
2023-05-02T21:03:27.510Z,4.97
2023-05-02T21:05:55.944Z,6.05
2023-05-02T21:08:23.294Z,5.82
2023-05-02T21:10:50.327Z,4.68
2023-05-02T21:13:17.569Z,5.18
2023-05-02T21:15:44.313Z,5.68
2023-05-02T21:18:11.368Z,5.40
2023-05-02T21:20:39.654Z,5.60
2023-05-02T21:23:06.461Z,5.30
2023-05-02T21:25:33.216Z,5.97
2023-05-02T21:27:59.971Z,5.45
2023-05-02T21:30:26.724Z,5.45
2023-05-02T21:32:53.460Z,5.53
2023-05-02T21:35:20.252Z,5.13
2023-05-02T21:37:46.915Z,6.35
2023-05-02T21:40:13.811Z,6.40
2023-05-02T21:42:40.962Z,7.10
2023-05-02T21:45:08.316Z,7.07
2023-05-02T21:47:35.116Z,6.53
2023-05-02T21:50:02.147Z,6.30
2023-05-02T21:52:29.327Z,6.57
2023-05-02T21:54:57.222Z,6.65
2023-05-02T21:57:23.849Z,6.47
2023-05-02T21:59:50.510Z,5.72
2023-05-02T22:02:17.376Z,6.57
2023-05-02T22:04:48.054Z,6.80
2023-05-02T22:07:16.035Z,7.43
2023-05-02T22:09:42.761Z,7.20
2023-05-02T22:12:09.554Z,7.20
2023-05-02T22:14:44.540Z,6.93
2023-05-02T22:17:12.376Z,7.70
2023-05-02T22:19:39.342Z,6.45
2023-05-02T22:22:06.634Z,7.32
2023-05-02T22:24:33.594Z,7.55
2023-05-02T22:27:00.233Z,8.30
2023-05-02T22:29:26.934Z,7.82
2023-05-02T22:31:53.658Z,6.53
2023-05-02T22:34:20.375Z,6.78
2023-05-02T22:36:47.137Z,7.53
2023-05-02T22:39:15.642Z,7.00
2023-05-02T22:41:43.050Z,9.82
2023-05-02T22:44:11.142Z,6.85
2023-05-02T22:46:39.070Z,7.85
2023-05-02T22:49:10.339Z,7.75
2023-05-02T22:51:40.048Z,7.35
2023-05-02T22:54:08.004Z,7.28
2023-05-02T22:56:35.012Z,7.60
2023-05-02T22:59:01.813Z,7.88
2023-05-02T23:01:28.673Z,7.43
2023-05-02T23:03:55.442Z,7.40
2023-05-02T23:06:22.333Z,7.38
2023-05-02T23:08:49.118Z,7.47
2023-05-02T23:11:15.968Z,8.05
2023-05-02T23:13:42.602Z,8.45
2023-05-02T23:16:09.362Z,7.53
2023-05-02T23:18:36.035Z,7.93
2023-05-02T23:21:04.329Z,7.70
2023-05-02T23:23:31.192Z,8.43
2023-05-02T23:25:58.358Z,7.43
2023-05-02T23:28:25.960Z,7.80
2023-05-02T23:30:53.606Z,7.70
2023-05-02T23:33:20.646Z,9.75
2023-05-02T23:35:47.574Z,8.10
2023-05-02T23:38:14.416Z,8.15
2023-05-02T23:40:41.126Z,7.88
2023-05-02T23:43:08.839Z,8.13
2023-05-02T23:45:35.695Z,8.23
2023-05-02T23:48:02.435Z,7.32
2023-05-02T23:50:29.148Z,7.93
2023-05-02T23:52:55.803Z,7.18
2023-05-02T23:55:22.552Z,7.50
2023-05-02T23:57:49.217Z,7.68
